Horseshoe Bay, TX

9:44 AM CST on December 08, 2016 (GMT -0600)
Horseshoe Bay

Weather History for KDZB - April, 2014

Change the Weather History Date:

Friday, April 25, 2014

  Actual Average (KBMQ) Record (KBMQ)
Temperature  
Mean Temperature 70 °F -  
Max Temperature 88 °F 77 °F 93 °F (2012)
Min Temperature 51 °F 56 °F 43 °F (2001)
Cooling Degree Days 4    
Growing Degree Days 20 (Base 50)    
Moisture  
Dew Point 50 °F    
Average Humidity 46    
Maximum Humidity 74    
Minimum Humidity 28    
Precipitation  
Precipitation 0.00 in - - ()
Sea Level Pressure  
Sea Level Pressure 29.95 in    
Wind  
Wind Speed 4 mph (SE)    
Max Wind Speed 13 mph    
Max Gust Speed 20 mph    
Visibility 10 miles    
Events      
Averages and records for this station are not official NWS values.
T = Trace of Precipitation, MM = Missing Value Source: NWS Daily Summary

Daily Weather History Graph

Daily Weather History Graph

Search for Another Location

Airport or City:

Trip Planner

Search our weather history database for the weather conditions in past years. The results will help you decide how hot, cold, wet, or windy it might be!

Date:

Astronomy

Apr. 25, 2014 Rise Set
Actual Time 5:55 AM MDT 7:07 PM MDT
Civil Twilight 5:30 AM MDT 7:32 PM MDT
Nautical Twilight 5:00 AM MDT 8:02 PM MDT
Astronomical Twilight 4:29 AM MDT 8:33 PM MDT
Moon 3:27 AM MDT (4/25) 3:46 PM MDT (4/25)
Length of Visible Light 14h 02m
Length of Day
13h 12m
Waning Crescent, 15% of the Moon is Illuminated
Apr 25
Waning Crescent
Apr 29
New
May 6
First Quarter
May 14
Full
May 21
Last Quarter

Hourly Weather History & Observations

Time (MDT) Temp. Heat Index Dew Point Humidity Pressure Visibility Wind Dir Wind Speed Gust Speed Precip Events Conditions
12:15 AM 57.2 °F - 41.0 °F 55% 29.95 in 10.0 mi Calm Calm - N/A   Clear
12:35 AM 57.2 °F - 40.8 °F 54% 29.95 in 10.0 mi Calm Calm - N/A   Clear
12:55 AM 57.0 °F - 41.0 °F 55% 29.95 in 10.0 mi SE 3.5 mph - N/A   Clear
1:15 AM 63.5 °F - 38.3 °F 39% 29.95 in 10.0 mi Calm Calm - N/A   Clear
1:35 AM 64.8 °F - 37.9 °F 37% 29.95 in 10.0 mi SSE 3.5 mph - N/A   Clear
1:55 AM 60.4 °F - 38.5 °F 44% 29.94 in 10.0 mi SSE 4.6 mph - N/A   Clear
2:15 AM 58.6 °F - 39.2 °F 48% 29.94 in 10.0 mi Calm Calm - N/A   Clear
2:35 AM 60.6 °F - 39.2 °F 45% 29.94 in 10.0 mi SSE 4.6 mph - N/A   Clear
2:55 AM 61.7 °F - 39.7 °F 44% 29.94 in 10.0 mi SE 3.5 mph - N/A   Clear
3:15 AM 61.7 °F - 40.1 °F 45% 29.94 in 10.0 mi Calm Calm - N/A   Clear
3:35 AM 61.2 °F - 40.5 °F 47% 29.94 in 10.0 mi Calm Calm - N/A   Clear
3:55 AM 58.6 °F - 41.0 °F 52% 29.95 in 10.0 mi Calm Calm - N/A   Clear
4:15 AM 54.9 °F - 41.4 °F 60% 29.96 in 10.0 mi Calm Calm - N/A   Clear
4:35 AM 53.8 °F - 41.5 °F 63% 29.97 in 10.0 mi Calm Calm - N/A   Clear
4:55 AM 54.3 °F - 43.7 °F 67% 29.98 in 10.0 mi Calm Calm - N/A   Clear
5:15 AM 52.9 °F - 43.5 °F 71% 29.99 in 10.0 mi SSW 3.5 mph - N/A   Clear
5:35 AM 52.2 °F - 43.5 °F 72% 29.99 in 10.0 mi South 3.5 mph - N/A   Clear
5:55 AM 51.8 °F - 43.9 °F 74% 30.00 in 10.0 mi South 3.5 mph - N/A   Clear
6:15 AM 51.8 °F - 43.7 °F 74% 30.00 in 10.0 mi South 3.5 mph - N/A   Clear
6:35 AM 52.7 °F - 44.6 °F 74% 30.00 in 10.0 mi South 3.5 mph - N/A   Clear
6:55 AM 56.8 °F - 46.2 °F 68% 30.00 in 10.0 mi Calm Calm - N/A   Clear
7:15 AM 63.7 °F - 45.0 °F 51% 30.01 in 10.0 mi East 3.5 mph - N/A   Clear
7:35 AM 66.4 °F - 45.0 °F 46% 30.02 in 10.0 mi ESE 5.8 mph - N/A   Clear
7:55 AM 68.2 °F - 44.6 °F 43% 30.03 in 10.0 mi ESE 4.6 mph - N/A   Clear
8:15 AM 70.5 °F - 45.0 °F 40% 30.03 in 10.0 mi East 6.9 mph - N/A   Clear
8:35 AM 71.2 °F - 45.5 °F 40% 30.03 in 10.0 mi SE 6.9 mph - N/A   Clear
8:55 AM 72.7 °F - 46.4 °F 39% 30.03 in 10.0 mi East 8.1 mph - N/A   Clear
9:15 AM 73.8 °F - 47.1 °F 39% 30.03 in 10.0 mi ESE 6.9 mph - N/A   Clear
9:35 AM 75.6 °F - 48.4 °F 38% 30.03 in 10.0 mi ESE 8.1 mph - N/A   Clear
9:55 AM 76.8 °F - 49.5 °F 38% 30.03 in 10.0 mi SE 9.2 mph - N/A   Clear
10:15 AM 78.3 °F - 50.5 °F 38% 30.03 in 10.0 mi SE 10.4 mph - N/A   Clear
10:35 AM 78.8 °F - 51.6 °F 39% 30.03 in 10.0 mi SE 8.1 mph - N/A   Clear
10:55 AM 80.2 °F - 51.6 °F 37% 30.03 in 10.0 mi SE 5.8 mph - N/A   Clear
11:15 AM 81.5 °F - 52.7 °F 37% 30.02 in 10.0 mi ESE 5.8 mph - N/A   Clear
11:35 AM 82.4 °F 81.4 °F 53.8 °F 37% 30.02 in 10.0 mi SSE 6.9 mph - N/A   Clear
11:55 AM 83.7 °F - 52.5 °F 34% 30.00 in 10.0 mi ESE 5.8 mph - N/A   Clear
12:15 PM 84.4 °F - 51.6 °F 32% 30.00 in 10.0 mi SE 8.1 mph - N/A   Clear
12:35 PM 85.5 °F - 51.4 °F 31% 29.99 in 10.0 mi ESE 6.9 mph - N/A   Clear
12:55 PM 85.1 °F 83.6 °F 54.3 °F 35% 29.98 in 10.0 mi East 3.5 mph 18.4 mph N/A   Scattered Clouds
1:15 PM 86.4 °F 84.5 °F 54.3 °F 33% 29.97 in 10.0 mi SE 8.1 mph - N/A   Clear
1:35 PM 86.4 °F 84.5 °F 54.3 °F 33% 29.96 in 10.0 mi ESE 5.8 mph - N/A   Scattered Clouds
1:55 PM 86.4 °F 84.4 °F 53.4 °F 32% 29.95 in 10.0 mi SE 6.9 mph - N/A   Clear
2:15 PM 87.8 °F 85.7 °F 53.8 °F 31% 29.94 in 10.0 mi SSE 12.7 mph 19.6 mph N/A   Clear
2:35 PM 87.8 °F - 52.7 °F 30% 29.93 in 10.0 mi South 10.4 mph - N/A   Clear
2:55 PM 88.0 °F - 51.8 °F 29% 29.92 in 10.0 mi South 9.2 mph - N/A   Clear
3:15 PM 88.2 °F - 50.9 °F 28% 29.91 in 10.0 mi SSE 5.8 mph - N/A   Clear
3:35 PM 88.9 °F - 51.8 °F 28% 29.90 in 10.0 mi SSE 11.5 mph - N/A   Clear
3:55 PM 88.7 °F - 52.5 °F 29% 29.88 in 10.0 mi SSE 9.2 mph - N/A   Clear
4:15 PM 88.5 °F 86.3 °F 53.4 °F 30% 29.88 in 10.0 mi SSE 11.5 mph 18.4 mph N/A   Clear
4:35 PM 88.2 °F - 52.7 °F 30% 29.87 in 10.0 mi SSE 10.4 mph 18.4 mph N/A   Clear
4:55 PM 87.8 °F 85.7 °F 53.4 °F 31% 29.87 in 10.0 mi SSE 11.5 mph 16.1 mph N/A   Clear
5:15 PM 87.6 °F 85.9 °F 55.0 °F 33% 29.86 in 10.0 mi SE 10.4 mph 18.4 mph N/A   Clear
5:35 PM 86.5 °F 84.9 °F 54.9 °F 34% 29.86 in 10.0 mi SE 6.9 mph 16.1 mph N/A   Clear
5:55 PM 86.0 °F 84.3 °F 54.5 °F 34% 29.85 in 10.0 mi SE 6.9 mph - N/A   Clear
6:15 PM 84.7 °F 83.4 °F 54.7 °F 36% 29.85 in 10.0 mi South 6.9 mph - N/A   Clear
6:35 PM 83.8 °F 82.7 °F 54.7 °F 37% 29.86 in 10.0 mi SSE 8.1 mph - N/A   Clear
6:55 PM 82.6 °F 81.7 °F 54.3 °F 38% 29.86 in 10.0 mi SSE 4.6 mph - N/A   Clear
7:15 PM 80.8 °F 80.4 °F 54.0 °F 39% 29.87 in 10.0 mi SE 5.8 mph - N/A   Clear
7:35 PM 79.7 °F - 54.0 °F 41% 29.88 in 10.0 mi SE 4.6 mph - N/A   Clear
7:55 PM 78.8 °F - 54.7 °F 43% 29.88 in 10.0 mi SE 5.8 mph - N/A   Clear
8:15 PM 77.9 °F - 55.8 °F 46% 29.88 in 10.0 mi SE 5.8 mph - N/A   Clear
8:35 PM 77.2 °F - 56.5 °F 49% 29.90 in 10.0 mi SSE 4.6 mph - N/A   Clear
8:55 PM 76.1 °F - 57.2 °F 52% 29.90 in 10.0 mi SSE 4.6 mph - N/A   Clear
9:15 PM 75.4 °F - 57.9 °F 54% 29.90 in 10.0 mi SSE 5.8 mph - N/A   Clear
9:35 PM 75.2 °F - 58.3 °F 56% 29.91 in 10.0 mi SSE 4.6 mph - N/A   Clear
10:15 PM 74.3 °F - 59.5 °F 60% 29.90 in 10.0 mi SSE 6.9 mph - N/A   Clear
10:35 PM 74.3 °F - 60.8 °F 63% 29.90 in 10.0 mi SSE 9.2 mph - N/A   Clear
10:55 PM 73.6 °F - 61.3 °F 65% 29.89 in 10.0 mi SSE 10.4 mph - N/A   Clear
11:15 PM 73.0 °F - 61.9 °F 68% 29.89 in 10.0 mi SSE 6.9 mph - N/A   Clear
11:35 PM 72.3 °F - 62.1 °F 70% 29.88 in 10.0 mi SSE 6.9 mph - N/A   Clear
11:55 PM 71.8 °F - 62.4 °F 72% 29.88 in 10.0 mi SSE 6.9 mph - N/A   Clear